sensor_id;sensor_type;location;lat;lon;timestamp;pressure;altitude;pressure_sealevel;temperature;humidity
23318;BME280;11831;55.918;37.746;2023-04-16T00:02:18;100830.34;;;7.24;38.55
23318;BME280;11831;55.918;37.746;2023-04-16T00:04:44;100824.84;;;7.25;38.48
23318;BME280;11831;55.918;37.746;2023-04-16T00:07:10;100832.06;;;7.47;38.63
23318;BME280;11831;55.918;37.746;2023-04-16T00:09:36;100832.69;;;7.19;38.67
23318;BME280;11831;55.918;37.746;2023-04-16T00:12:03;100835.53;;;7.17;38.64
23318;BME280;11831;55.918;37.746;2023-04-16T00:14:29;100835.97;;;7.29;38.66
23318;BME280;11831;55.918;37.746;2023-04-16T00:16:55;100835.66;;;7.24;38.60
23318;BME280;11831;55.918;37.746;2023-04-16T00:19:21;100843.63;;;7.32;38.65
23318;BME280;11831;55.918;37.746;2023-04-16T00:21:47;100839.94;;;7.41;38.43
23318;BME280;11831;55.918;37.746;2023-04-16T00:24:13;100842.12;;;7.29;38.80
23318;BME280;11831;55.918;37.746;2023-04-16T00:26:40;100839.28;;;7.39;38.65
23318;BME280;11831;55.918;37.746;2023-04-16T00:29:06;100845.12;;;5.89;39.19
23318;BME280;11831;55.918;37.746;2023-04-16T00:31:32;100836.31;;;6.78;39.60
23318;BME280;11831;55.918;37.746;2023-04-16T00:33:58;100845.78;;;6.81;39.59
23318;BME280;11831;55.918;37.746;2023-04-16T00:36:25;100838.62;;;6.73;39.23
23318;BME280;11831;55.918;37.746;2023-04-16T00:38:52;100839.09;;;6.93;39.33
23318;BME280;11831;55.918;37.746;2023-04-16T00:41:18;100844.28;;;6.78;39.37
23318;BME280;11831;55.918;37.746;2023-04-16T00:43:44;100843.78;;;6.83;39.35
23318;BME280;11831;55.918;37.746;2023-04-16T00:46:11;100836.13;;;6.72;39.55
23318;BME280;11831;55.918;37.746;2023-04-16T00:48:37;100838.13;;;6.70;39.75
23318;BME280;11831;55.918;37.746;2023-04-16T00:51:04;100845.62;;;6.66;39.63
23318;BME280;11831;55.918;37.746;2023-04-16T00:53:31;100845.78;;;6.73;39.88
23318;BME280;11831;55.918;37.746;2023-04-16T00:55:57;100843.69;;;6.44;40.19
23318;BME280;11831;55.918;37.746;2023-04-16T00:58:24;100840.34;;;6.50;40.19
23318;BME280;11831;55.918;37.746;2023-04-16T01:00:50;100836.50;;;6.36;40.21
23318;BME280;11831;55.918;37.746;2023-04-16T01:03:16;100850.28;;;6.64;40.38
23318;BME280;11831;55.918;37.746;2023-04-16T01:05:43;100838.03;;;6.14;40.73
23318;BME280;11831;55.918;37.746;2023-04-16T01:08:17;100839.50;;;6.41;40.92
23318;BME280;11831;55.918;37.746;2023-04-16T01:10:43;100835.69;;;6.52;40.68
23318;BME280;11831;55.918;37.746;2023-04-16T01:13:10;100835.69;;;6.11;40.98
23318;BME280;11831;55.918;37.746;2023-04-16T01:15:36;100837.03;;;6.48;40.97
23318;BME280;11831;55.918;37.746;2023-04-16T01:18:02;100846.47;;;6.10;40.69
23318;BME280;11831;55.918;37.746;2023-04-16T01:20:38;100839.00;;;6.54;40.86
23318;BME280;11831;55.918;37.746;2023-04-16T01:23:04;100837.84;;;6.40;41.28
23318;BME280;11831;55.918;37.746;2023-04-16T01:25:30;100835.69;;;6.03;41.32
23318;BME280;11831;55.918;37.746;2023-04-16T01:27:56;100833.69;;;6.38;41.31
23318;BME280;11831;55.918;37.746;2023-04-16T01:30:24;100829.87;;;6.48;41.04
23318;BME280;11831;55.918;37.746;2023-04-16T01:32:50;100835.53;;;6.53;41.14
23318;BME280;11831;55.918;37.746;2023-04-16T01:35:16;100835.31;;;6.71;40.94
23318;BME280;11831;55.918;37.746;2023-04-16T01:37:43;100837.19;;;6.30;41.35
23318;BME280;11831;55.918;37.746;2023-04-16T01:40:09;100832.69;;;6.39;41.21
23318;BME280;11831;55.918;37.746;2023-04-16T01:42:36;100838.53;;;6.18;41.00
23318;BME280;11831;55.918;37.746;2023-04-16T01:45:02;100840.47;;;6.65;41.24
23318;BME280;11831;55.918;37.746;2023-04-16T01:47:29;100837.37;;;6.45;41.19
23318;BME280;11831;55.918;37.746;2023-04-16T01:49:55;100829.69;;;6.58;41.28
23318;BME280;11831;55.918;37.746;2023-04-16T01:52:22;100831.38;;;6.35;0.00
23318;BME280;11831;55.918;37.746;2023-04-16T01:54:48;100834.72;;;6.45;0.00
23318;BME280;11831;55.918;37.746;2023-04-16T01:57:14;100835.84;;;6.42;0.00
23318;BME280;11831;55.918;37.746;2023-04-16T01:59:40;100827.88;;;6.50;0.00
23318;BME280;11831;55.918;37.746;2023-04-16T02:02:10;100828.72;;;6.51;0.00
23318;BME280;11831;55.918;37.746;2023-04-16T02:04:36;100830.03;;;6.55;0.00
23318;BME280;11831;55.918;37.746;2023-04-16T02:07:03;100832.84;;;6.53;0.00
23318;BME280;11831;55.918;37.746;2023-04-16T02:09:30;100829.38;;;6.53;0.00
23318;BME280;11831;55.918;37.746;2023-04-16T02:11:56;100834.53;;;6.54;0.00
23318;BME280;11831;55.918;37.746;2023-04-16T02:14:22;100827.03;;;6.66;0.00
23318;BME280;11831;55.918;37.746;2023-04-16T02:16:50;100834.97;;;6.82;0.00
23318;BME280;11831;55.918;37.746;2023-04-16T02:19:17;100829.53;;;6.60;0.00
23318;BME280;11831;55.918;37.746;2023-04-16T02:21:43;100830.84;;;6.64;0.00
23318;BME280;11831;55.918;37.746;2023-04-16T02:24:09;100832.66;;;6.71;0.00
23318;BME280;11831;55.918;37.746;2023-04-16T02:26:35;100833.47;;;6.72;0.00
23318;BME280;11831;55.918;37.746;2023-04-16T02:29:01;100838.84;;;6.47;0.00
23318;BME280;11831;55.918;37.746;2023-04-16T02:31:27;100833.53;;;6.47;0.00
23318;BME280;11831;55.918;37.746;2023-04-16T02:33:54;100832.53;;;6.48;0.00
23318;BME280;11831;55.918;37.746;2023-04-16T02:36:20;100827.88;;;6.34;0.00
23318;BME280;11831;55.918;37.746;2023-04-16T02:38:46;100831.81;;;6.71;0.00
23318;BME280;11831;55.918;37.746;2023-04-16T02:41:12;100828.34;;;6.70;0.00
23318;BME280;11831;55.918;37.746;2023-04-16T02:43:38;100840.66;;;6.39;0.00
23318;BME280;11831;55.918;37.746;2023-04-16T02:46:05;100836.81;;;6.66;0.00
23318;BME280;11831;55.918;37.746;2023-04-16T02:48:31;100839.16;;;6.61;0.00
23318;BME280;11831;55.918;37.746;2023-04-16T02:50:57;100839.47;;;6.82;0.00
23318;BME280;11831;55.918;37.746;2023-04-16T02:53:23;100838.62;;;6.81;0.00
23318;BME280;11831;55.918;37.746;2023-04-16T02:55:50;100843.81;;;6.75;0.00
23318;BME280;11831;55.918;37.746;2023-04-16T02:58:22;100851.59;;;6.84;0.00
23318;BME280;11831;55.918;37.746;2023-04-16T03:00:49;100847.13;;;6.69;0.00
23318;BME280;11831;55.918;37.746;2023-04-16T03:03:15;100843.28;;;6.79;0.00
23318;BME280;11831;55.918;37.746;2023-04-16T03:05:41;100850.09;;;6.82;0.00
23318;BME280;11831;55.918;37.746;2023-04-16T03:08:08;100846.09;;;6.86;0.00
23318;BME280;11831;55.918;37.746;2023-04-16T03:10:34;100852.59;;;6.75;0.00
23318;BME280;11831;55.918;37.746;2023-04-16T03:13:01;100853.44;;;6.76;0.00
23318;BME280;11831;55.918;37.746;2023-04-16T03:15:27;100846.44;;;6.67;0.00
23318;BME280;11831;55.918;37.746;2023-04-16T03:17:53;100853.72;;;6.89;0.00
23318;BME280;11831;55.918;37.746;2023-04-16T03:20:19;100845.41;;;6.92;0.00
23318;BME280;11831;55.918;37.746;2023-04-16T03:22:46;100854.63;;;6.49;0.00
23318;BME280;11831;55.918;37.746;2023-04-16T03:25:12;100857.72;;;6.85;0.00
23318;BME280;11831;55.918;37.746;2023-04-16T03:27:38;100850.34;;;7.03;0.00
23318;BME280;11831;55.918;37.746;2023-04-16T03:30:05;100855.88;;;6.94;0.00
23318;BME280;11831;55.918;37.746;2023-04-16T03:32:32;100857.06;;;6.83;0.00
23318;BME280;11831;55.918;37.746;2023-04-16T03:34:58;100855.91;;;6.85;0.00
23318;BME280;11831;55.918;37.746;2023-04-16T03:37:24;100851.13;;;6.57;0.00
23318;BME280;11831;55.918;37.746;2023-04-16T03:39:50;100847.94;;;6.77;0.00
23318;BME280;11831;55.918;37.746;2023-04-16T03:42:17;100851.03;;;7.05;0.00
23318;BME280;11831;55.918;37.746;2023-04-16T03:44:43;100859.38;;;6.94;0.00
23318;BME280;11831;55.918;37.746;2023-04-16T03:47:09;100855.62;;;7.20;0.00
23318;BME280;11831;55.918;37.746;2023-04-16T03:49:35;100846.13;;;6.78;0.00
23318;BME280;11831;55.918;37.746;2023-04-16T03:52:01;100849.31;;;7.21;0.00
23318;BME280;11831;55.918;37.746;2023-04-16T03:54:28;100858.03;;;7.06;0.00
23318;BME280;11831;55.918;37.746;2023-04-16T03:56:54;100858.69;;;7.08;0.00
23318;BME280;11831;55.918;37.746;2023-04-16T03:59:22;100858.50;;;7.02;0.00
23318;BME280;11831;55.918;37.746;2023-04-16T04:01:48;100857.50;;;7.03;0.00
23318;BME280;11831;55.918;37.746;2023-04-16T04:04:14;100852.31;;;7.18;0.00
23318;BME280;11831;55.918;37.746;2023-04-16T04:06:40;100858.41;;;6.71;0.00
23318;BME280;11831;55.918;37.746;2023-04-16T04:09:06;100865.00;;;6.99;0.00
23318;BME280;11831;55.918;37.746;2023-04-16T04:11:32;100862.75;;;6.56;0.00
23318;BME280;11831;55.918;37.746;2023-04-16T04:13:58;100859.34;;;7.02;0.00
23318;BME280;11831;55.918;37.746;2023-04-16T04:16:24;100858.44;;;6.46;0.00
23318;BME280;11831;55.918;37.746;2023-04-16T04:18:50;100855.09;;;6.61;0.00
23318;BME280;11831;55.918;37.746;2023-04-16T04:21:17;100860.16;;;7.11;0.00
23318;BME280;11831;55.918;37.746;2023-04-16T04:23:43;100868.66;;;7.06;0.00
23318;BME280;11831;55.918;37.746;2023-04-16T04:26:09;100856.81;;;7.17;0.00
23318;BME280;11831;55.918;37.746;2023-04-16T04:28:35;100860.22;;;7.34;0.00
23318;BME280;11831;55.918;37.746;2023-04-16T04:31:01;100857.91;;;7.31;0.00
23318;BME280;11831;55.918;37.746;2023-04-16T04:33:27;100854.34;;;7.15;0.00
23318;BME280;11831;55.918;37.746;2023-04-16T04:35:54;100852.97;;;7.90;0.00
23318;BME280;11831;55.918;37.746;2023-04-16T04:38:20;100848.19;;;7.54;0.00
23318;BME280;11831;55.918;37.746;2023-04-16T04:40:50;100850.00;;;7.85;0.00
23318;BME280;11831;55.918;37.746;2023-04-16T04:43:17;100854.44;;;7.69;0.00
23318;BME280;11831;55.918;37.746;2023-04-16T04:45:44;100852.44;;;8.17;0.00
23318;BME280;11831;55.918;37.746;2023-04-16T04:48:11;100856.38;;;8.29;0.00
23318;BME280;11831;55.918;37.746;2023-04-16T04:50:37;100857.72;;;6.93;0.00
23318;BME280;11831;55.918;37.746;2023-04-16T04:53:03;100852.25;;;7.96;0.00
23318;BME280;11831;55.918;37.746;2023-04-16T04:55:38;100855.78;;;7.65;0.00
23318;BME280;11831;55.918;37.746;2023-04-16T04:58:04;100849.31;;;8.59;0.00
23318;BME280;11831;55.918;37.746;2023-04-16T05:00:31;100847.56;;;8.66;0.00
23318;BME280;11831;55.918;37.746;2023-04-16T05:03:00;100841.13;;;8.15;0.00
23318;BME280;11831;55.918;37.746;2023-04-16T05:05:26;100842.88;;;8.68;0.00
23318;BME280;11831;55.918;37.746;2023-04-16T05:07:52;100848.91;;;8.48;0.00
23318;BME280;11831;55.918;37.746;2023-04-16T05:10:19;100850.97;;;8.75;0.00
23318;BME280;11831;55.918;37.746;2023-04-16T05:12:45;100846.97;;;8.42;0.00
23318;BME280;11831;55.918;37.746;2023-04-16T05:15:12;100846.84;;;8.58;0.00
23318;BME280;11831;55.918;37.746;2023-04-16T05:17:38;100856.69;;;8.26;0.00
23318;BME280;11831;55.918;37.746;2023-04-16T05:20:05;100856.97;;;8.39;0.00
23318;BME280;11831;55.918;37.746;2023-04-16T05:22:31;100850.41;;;8.27;0.00
23318;BME280;11831;55.918;37.746;2023-04-16T05:24:57;100849.09;;;9.28;0.00
23318;BME280;11831;55.918;37.746;2023-04-16T05:27:23;100859.47;;;9.38;0.00
23318;BME280;11831;55.918;37.746;2023-04-16T05:29:50;100846.69;;;9.84;0.00
23318;BME280;11831;55.918;37.746;2023-04-16T05:32:16;100848.59;;;9.39;0.00
23318;BME280;11831;55.918;37.746;2023-04-16T05:34:42;100857.72;;;9.15;0.00
23318;BME280;11831;55.918;37.746;2023-04-16T05:37:08;100853.56;;;9.93;0.00
23318;BME280;11831;55.918;37.746;2023-04-16T05:39:34;100853.25;;;9.67;0.00
23318;BME280;11831;55.918;37.746;2023-04-16T05:42:00;100849.72;;;10.02;0.00
23318;BME280;11831;55.918;37.746;2023-04-16T05:44:27;100850.22;;;10.48;41.18
23318;BME280;11831;55.918;37.746;2023-04-16T05:46:53;100842.81;;;10.78;40.61
23318;BME280;11831;55.918;37.746;2023-04-16T05:49:19;100842.03;;;10.84;40.56
23318;BME280;11831;55.918;37.746;2023-04-16T05:51:46;100841.75;;;10.45;40.25
23318;BME280;11831;55.918;37.746;2023-04-16T05:54:12;100844.28;;;11.15;40.26
23318;BME280;11831;55.918;37.746;2023-04-16T05:56:38;100841.88;;;10.93;40.47
23318;BME280;11831;55.918;37.746;2023-04-16T05:59:05;100844.53;;;10.86;40.44
23318;BME280;11831;55.918;37.746;2023-04-16T06:01:31;100849.12;;;10.99;40.09
23318;BME280;11831;55.918;37.746;2023-04-16T06:03:57;100845.56;;;11.26;40.28
23318;BME280;11831;55.918;37.746;2023-04-16T06:06:23;100844.34;;;11.29;39.70
23318;BME280;11831;55.918;37.746;2023-04-16T06:08:51;100851.94;;;11.18;39.62
23318;BME280;11831;55.918;37.746;2023-04-16T06:11:17;100850.87;;;11.13;39.50
23318;BME280;11831;55.918;37.746;2023-04-16T06:13:43;100842.66;;;11.21;38.78
23318;BME280;11831;55.918;37.746;2023-04-16T06:16:09;100845.50;;;11.61;37.85
23318;BME280;11831;55.918;37.746;2023-04-16T06:18:35;100837.56;;;10.92;38.13
23318;BME280;11831;55.918;37.746;2023-04-16T06:21:02;100836.19;;;12.04;36.80
23318;BME280;11831;55.918;37.746;2023-04-16T06:23:28;100842.91;;;11.74;36.47
23318;BME280;11831;55.918;37.746;2023-04-16T06:25:55;100833.00;;;11.74;36.32
23318;BME280;11831;55.918;37.746;2023-04-16T06:28:21;100832.03;;;10.65;36.72
23318;BME280;11831;55.918;37.746;2023-04-16T06:30:47;100840.44;;;11.31;35.98
23318;BME280;11831;55.918;37.746;2023-04-16T06:33:13;100834.03;;;11.67;37.09
23318;BME280;11831;55.918;37.746;2023-04-16T06:35:40;100840.13;;;11.47;36.42
23318;BME280;11831;55.918;37.746;2023-04-16T06:38:06;100842.41;;;12.18;36.14
23318;BME280;11831;55.918;37.746;2023-04-16T06:40:32;100838.06;;;11.97;34.89
23318;BME280;11831;55.918;37.746;2023-04-16T06:42:58;100823.41;;;12.20;34.62
23318;BME280;11831;55.918;37.746;2023-04-16T06:45:25;100831.47;;;12.13;34.61
23318;BME280;11831;55.918;37.746;2023-04-16T06:47:51;100821.25;;;11.69;34.82
23318;BME280;11831;55.918;37.746;2023-04-16T06:50:17;100826.09;;;12.06;34.36
23318;BME280;11831;55.918;37.746;2023-04-16T06:52:43;100820.34;;;12.62;33.80
23318;BME280;11831;55.918;37.746;2023-04-16T06:55:09;100826.53;;;11.49;34.58
23318;BME280;11831;55.918;37.746;2023-04-16T06:57:36;100830.06;;;12.30;33.19
23318;BME280;11831;55.918;37.746;2023-04-16T07:00:02;100820.94;;;11.98;33.25
23318;BME280;11831;55.918;37.746;2023-04-16T07:02:29;100820.47;;;11.81;33.47
23318;BME280;11831;55.918;37.746;2023-04-16T07:04:55;100812.91;;;12.71;32.25
23318;BME280;11831;55.918;37.746;2023-04-16T07:07:22;100820.13;;;12.44;32.59
23318;BME280;11831;55.918;37.746;2023-04-16T07:09:48;100811.03;;;12.78;32.19
23318;BME280;11831;55.918;37.746;2023-04-16T07:12:14;100813.72;;;12.71;31.35
23318;BME280;11831;55.918;37.746;2023-04-16T07:14:40;100818.91;;;12.66;30.88
23318;BME280;11831;55.918;37.746;2023-04-16T07:17:06;100816.94;;;13.26;30.88
23318;BME280;11831;55.918;37.746;2023-04-16T07:19:32;100810.50;;;13.79;30.65
23318;BME280;11831;55.918;37.746;2023-04-16T07:21:59;100802.44;;;13.72;29.94
23318;BME280;11831;55.918;37.746;2023-04-16T07:24:26;100798.47;;;14.13;28.99
23318;BME280;11831;55.918;37.746;2023-04-16T07:26:52;100796.41;;;14.15;28.29
23318;BME280;11831;55.918;37.746;2023-04-16T07:29:19;100784.84;;;13.76;28.50
23318;BME280;11831;55.918;37.746;2023-04-16T07:31:46;100794.38;;;13.72;28.44
23318;BME280;11831;55.918;37.746;2023-04-16T07:34:12;100791.12;;;13.63;28.08
23318;BME280;11831;55.918;37.746;2023-04-16T07:36:38;100795.22;;;14.29;27.92
23318;BME280;11831;55.918;37.746;2023-04-16T07:39:04;100796.25;;;14.03;28.29
23318;BME280;11831;55.918;37.746;2023-04-16T07:41:31;100794.19;;;14.30;27.78
23318;BME280;11831;55.918;37.746;2023-04-16T07:43:57;100794.09;;;13.87;28.48
23318;BME280;11831;55.918;37.746;2023-04-16T07:46:23;100790.22;;;14.39;27.86
23318;BME280;11831;55.918;37.746;2023-04-16T07:48:49;100800.13;;;13.82;28.37
23318;BME280;11831;55.918;37.746;2023-04-16T07:51:15;100792.31;;;14.06;27.91
23318;BME280;11831;55.918;37.746;2023-04-16T07:53:42;100795.19;;;13.79;27.99
23318;BME280;11831;55.918;37.746;2023-04-16T07:56:08;100789.09;;;14.22;27.29
23318;BME280;11831;55.918;37.746;2023-04-16T07:58:34;100792.72;;;14.34;27.22
23318;BME280;11831;55.918;37.746;2023-04-16T08:01:01;100788.28;;;14.21;27.49
23318;BME280;11831;55.918;37.746;2023-04-16T08:03:27;100796.19;;;14.41;27.27
23318;BME280;11831;55.918;37.746;2023-04-16T08:05:53;100789.69;;;14.24;27.39
23318;BME280;11831;55.918;37.746;2023-04-16T08:08:19;100802.13;;;13.55;27.82
23318;BME280;11831;55.918;37.746;2023-04-16T08:10:45;100790.22;;;13.76;27.33
23318;BME280;11831;55.918;37.746;2023-04-16T08:13:11;100786.63;;;14.20;27.50
23318;BME280;11831;55.918;37.746;2023-04-16T08:15:37;100775.31;;;14.12;27.24
23318;BME280;11831;55.918;37.746;2023-04-16T08:18:03;100789.84;;;14.04;26.98
23318;BME280;11831;55.918;37.746;2023-04-16T08:20:37;100765.72;;;14.47;27.01
23318;BME280;11831;55.918;37.746;2023-04-16T08:23:04;100781.19;;;14.27;27.22
23318;BME280;11831;55.918;37.746;2023-04-16T08:25:30;100769.28;;;14.41;27.14
23318;BME280;11831;55.918;37.746;2023-04-16T08:27:56;100768.63;;;14.21;27.33
23318;BME280;11831;55.918;37.746;2023-04-16T08:30:22;100779.09;;;14.29;27.28
23318;BME280;11831;55.918;37.746;2023-04-16T08:32:48;100776.37;;;14.97;27.35
23318;BME280;11831;55.918;37.746;2023-04-16T08:35:14;100781.41;;;15.78;26.87
23318;BME280;11831;55.918;37.746;2023-04-16T08:37:41;100773.16;;;15.62;26.83
23318;BME280;11831;55.918;37.746;2023-04-16T08:40:07;100771.56;;;14.38;26.89
23318;BME280;11831;55.918;37.746;2023-04-16T08:42:35;100766.84;;;15.01;26.97
23318;BME280;11831;55.918;37.746;2023-04-16T08:45:06;100759.31;;;15.40;27.05
23318;BME280;11831;55.918;37.746;2023-04-16T08:47:33;100766.28;;;15.77;26.82
23318;BME280;11831;55.918;37.746;2023-04-16T08:50:02;100754.69;;;15.89;26.54
23318;BME280;11831;55.918;37.746;2023-04-16T08:52:29;100751.03;;;15.83;26.69
23318;BME280;11831;55.918;37.746;2023-04-16T08:57:25;100750.50;;;15.14;26.49
23318;BME280;11831;55.918;37.746;2023-04-16T08:59:55;100740.41;;;14.91;26.37
23318;BME280;11831;55.918;37.746;2023-04-16T09:02:22;100741.97;;;15.66;26.27
23318;BME280;11831;55.918;37.746;2023-04-16T09:04:50;100739.25;;;14.19;26.79
23318;BME280;11831;55.918;37.746;2023-04-16T09:07:18;100741.97;;;15.17;26.66
23318;BME280;11831;55.918;37.746;2023-04-16T09:09:46;100723.84;;;15.84;26.73
23318;BME280;11831;55.918;37.746;2023-04-16T09:12:13;100731.75;;;14.71;26.58
23318;BME280;11831;55.918;37.746;2023-04-16T09:14:39;100732.00;;;15.66;26.75
23318;BME280;11831;55.918;37.746;2023-04-16T09:17:07;100731.34;;;15.52;27.02
23318;BME280;11831;55.918;37.746;2023-04-16T09:19:33;100740.00;;;15.73;26.75
23318;BME280;11831;55.918;37.746;2023-04-16T09:22:00;100723.28;;;15.94;26.43
23318;BME280;11831;55.918;37.746;2023-04-16T09:24:27;100719.06;;;16.10;26.16
23318;BME280;11831;55.918;37.746;2023-04-16T09:26:53;100722.63;;;16.34;26.21
23318;BME280;11831;55.918;37.746;2023-04-16T09:29:53;100719.06;;;16.80;26.13
23318;BME280;11831;55.918;37.746;2023-04-16T09:32:12;100721.81;;;15.68;26.62
23318;BME280;11831;55.918;37.746;2023-04-16T09:34:57;100720.75;;;15.69;26.94
23318;BME280;11831;55.918;37.746;2023-04-16T09:37:24;100728.09;;;16.15;26.30
23318;BME280;11831;55.918;37.746;2023-04-16T09:39:57;100722.56;;;15.57;26.78
23318;BME280;11831;55.918;37.746;2023-04-16T09:42:28;100711.34;;;16.60;26.59
23318;BME280;11831;55.918;37.746;2023-04-16T09:44:54;100707.19;;;16.81;26.37
23318;BME280;11831;55.918;37.746;2023-04-16T09:47:20;100713.78;;;16.50;26.15
23318;BME280;11831;55.918;37.746;2023-04-16T09:49:47;100710.53;;;16.36;26.06
23318;BME280;11831;55.918;37.746;2023-04-16T09:52:14;100710.16;;;16.56;25.91
23318;BME280;11831;55.918;37.746;2023-04-16T09:57:12;100701.06;;;16.97;25.74
23318;BME280;11831;55.918;37.746;2023-04-16T09:59:38;100707.59;;;17.42;25.56
23318;BME280;11831;55.918;37.746;2023-04-16T10:02:06;100703.38;;;16.30;25.36
23318;BME280;11831;55.918;37.746;2023-04-16T10:04:43;100698.94;;;16.99;25.26
23318;BME280;11831;55.918;37.746;2023-04-16T10:07:10;100691.37;;;16.61;25.86
23318;BME280;11831;55.918;37.746;2023-04-16T10:09:38;100692.53;;;16.65;25.68
23318;BME280;11831;55.918;37.746;2023-04-16T10:12:05;100698.22;;;17.04;25.85
23318;BME280;11831;55.918;37.746;2023-04-16T10:14:31;100691.81;;;17.22;25.70
23318;BME280;11831;55.918;37.746;2023-04-16T10:16:58;100695.19;;;17.00;25.39
23318;BME280;11831;55.918;37.746;2023-04-16T10:19:26;100689.78;;;17.57;25.69
23318;BME280;11831;55.918;37.746;2023-04-16T10:21:53;100698.72;;;17.29;25.92
23318;BME280;11831;55.918;37.746;2023-04-16T10:24:19;100674.41;;;15.61;26.39
23318;BME280;11831;55.918;37.746;2023-04-16T10:26:45;100686.75;;;16.97;25.93
23318;BME280;11831;55.918;37.746;2023-04-16T10:29:12;100684.00;;;15.57;25.90
23318;BME280;11831;55.918;37.746;2023-04-16T10:31:38;100688.09;;;16.36;26.05
23318;BME280;11831;55.918;37.746;2023-04-16T10:34:06;100692.56;;;17.17;25.91
23318;BME280;11831;55.918;37.746;2023-04-16T10:36:34;100687.13;;;16.89;25.95
23318;BME280;11831;55.918;37.746;2023-04-16T10:39:01;100683.66;;;17.05;25.92
23318;BME280;11831;55.918;37.746;2023-04-16T10:41:27;100683.84;;;16.87;25.59
23318;BME280;11831;55.918;37.746;2023-04-16T10:44:02;100681.91;;;17.56;25.61
23318;BME280;11831;55.918;37.746;2023-04-16T10:46:35;100683.91;;;17.32;25.42
23318;BME280;11831;55.918;37.746;2023-04-16T10:49:13;100669.75;;;16.85;25.31
23318;BME280;11831;55.918;37.746;2023-04-16T10:51:40;100665.38;;;17.69;24.89
23318;BME280;11831;55.918;37.746;2023-04-16T10:56:33;100673.81;;;17.27;25.41
23318;BME280;11831;55.918;37.746;2023-04-16T10:59:00;100673.25;;;17.71;25.36
23318;BME280;11831;55.918;37.746;2023-04-16T11:01:29;100676.28;;;17.91;25.61
23318;BME280;11831;55.918;37.746;2023-04-16T11:03:59;100681.78;;;18.90;24.61
23318;BME280;11831;55.918;37.746;2023-04-16T11:06:27;100682.16;;;18.99;24.40
23318;BME280;11831;55.918;37.746;2023-04-16T11:08:53;100667.66;;;20.38;24.31
23318;BME280;11831;55.918;37.746;2023-04-16T11:11:20;100666.16;;;19.51;23.84
23318;BME280;11831;55.918;37.746;2023-04-16T11:13:46;100655.22;;;20.42;23.87
23318;BME280;11831;55.918;37.746;2023-04-16T11:16:13;100658.13;;;20.30;24.12
23318;BME280;11831;55.918;37.746;2023-04-16T11:18:39;100662.97;;;19.54;24.02
23318;BME280;11831;55.918;37.746;2023-04-16T11:21:07;100657.06;;;20.36;24.14
23318;BME280;11831;55.918;37.746;2023-04-16T11:23:44;100659.34;;;19.48;24.12
23318;BME280;11831;55.918;37.746;2023-04-16T11:26:20;100649.28;;;20.08;24.22
23318;BME280;11831;55.918;37.746;2023-04-16T11:28:47;100655.84;;;21.27;23.98
23318;BME280;11831;55.918;37.746;2023-04-16T11:31:13;100636.28;;;22.96;22.71
23318;BME280;11831;55.918;37.746;2023-04-16T11:33:39;100657.34;;;23.69;22.72
23318;BME280;11831;55.918;37.746;2023-04-16T11:36:07;100644.75;;;25.21;21.66
23318;BME280;11831;55.918;37.746;2023-04-16T11:38:36;100627.09;;;24.90;21.14
23318;BME280;11831;55.918;37.746;2023-04-16T11:41:03;100635.03;;;25.10;21.62
23318;BME280;11831;55.918;37.746;2023-04-16T11:43:29;100632.28;;;26.13;20.72
23318;BME280;11831;55.918;37.746;2023-04-16T11:45:56;100634.66;;;24.31;20.90
23318;BME280;11831;55.918;37.746;2023-04-16T11:48:23;100640.00;;;26.11;20.51
23318;BME280;11831;55.918;37.746;2023-04-16T11:50:55;100636.28;;;25.74;20.79
23318;BME280;11831;55.918;37.746;2023-04-16T11:53:21;100627.88;;;24.48;21.61
23318;BME280;11831;55.918;37.746;2023-04-16T11:55:48;100622.12;;;21.74;21.82
23318;BME280;11831;55.918;37.746;2023-04-16T11:58:14;100628.00;;;20.99;22.27
23318;BME280;11831;55.918;37.746;2023-04-16T12:00:44;100621.47;;;22.43;21.82
23318;BME280;11831;55.918;37.746;2023-04-16T12:03:11;100630.44;;;23.13;21.75
23318;BME280;11831;55.918;37.746;2023-04-16T12:05:37;100613.75;;;24.64;21.29
23318;BME280;11831;55.918;37.746;2023-04-16T12:08:08;100626.72;;;24.96;21.31
23318;BME280;11831;55.918;37.746;2023-04-16T12:10:35;100610.88;;;24.74;21.06
23318;BME280;11831;55.918;37.746;2023-04-16T12:13:08;100614.53;;;26.10;20.69
23318;BME280;11831;55.918;37.746;2023-04-16T12:15:47;100616.44;;;28.26;20.09
23318;BME280;11831;55.918;37.746;2023-04-16T12:18:14;100606.53;;;26.41;19.86
23318;BME280;11831;55.918;37.746;2023-04-16T12:20:41;100601.00;;;26.27;20.29
23318;BME280;11831;55.918;37.746;2023-04-16T12:23:08;100604.59;;;27.41;20.46
23318;BME280;11831;55.918;37.746;2023-04-16T12:25:34;100601.03;;;26.55;19.71
23318;BME280;11831;55.918;37.746;2023-04-16T12:28:00;100599.09;;;27.86;19.30
23318;BME280;11831;55.918;37.746;2023-04-16T12:30:27;100590.72;;;28.88;19.47
23318;BME280;11831;55.918;37.746;2023-04-16T12:33:13;100577.81;;;28.00;19.33
23318;BME280;11831;55.918;37.746;2023-04-16T12:35:40;100583.41;;;29.44;18.91
23318;BME280;11831;55.918;37.746;2023-04-16T12:38:06;100570.00;;;29.16;19.09
23318;BME280;11831;55.918;37.746;2023-04-16T12:40:33;100567.56;;;28.89;18.86
23318;BME280;11831;55.918;37.746;2023-04-16T12:42:59;100570.06;;;30.98;18.39
23318;BME280;11831;55.918;37.746;2023-04-16T12:45:25;100574.88;;;31.43;18.35
23318;BME280;11831;55.918;37.746;2023-04-16T12:47:51;100572.91;;;31.31;18.25
23318;BME280;11831;55.918;37.746;2023-04-16T12:50:18;100569.06;;;30.52;18.64
23318;BME280;11831;55.918;37.746;2023-04-16T12:52:44;100566.78;;;31.26;18.31
23318;BME280;11831;55.918;37.746;2023-04-16T12:55:10;100564.50;;;31.40;18.22